createdAt,value
2023-02-03T01:17:33.524Z,95.40
2023-02-03T01:27:55.190Z,95.40
2023-02-03T01:38:18.743Z,95.40
2023-02-03T01:48:39.756Z,95.40
2023-02-03T01:59:01.312Z,95.40
2023-02-03T02:09:25.702Z,95.30
2023-02-03T02:20:22.474Z,95.40
2023-02-03T02:31:38.913Z,95.50
2023-02-03T02:42:24.354Z,95.50
2023-02-03T02:52:48.434Z,95.50
2023-02-03T03:03:21.325Z,95.50
2023-02-03T03:13:50.918Z,95.50
2023-02-03T03:24:21.630Z,95.50
2023-02-03T03:34:43.488Z,95.50
2023-02-03T03:45:11.952Z,95.40
2023-02-03T03:55:36.536Z,95.40
2023-02-03T04:05:57.831Z,95.40
2023-02-03T04:16:18.805Z,95.30
2023-02-03T04:26:41.259Z,95.20
2023-02-03T04:37:02.925Z,95.30
2023-02-03T04:47:24.078Z,95.30
2023-02-03T04:57:45.464Z,95.30
2023-02-03T05:08:06.597Z,95.30
2023-02-03T05:18:27.582Z,95.30
2023-02-03T05:28:48.680Z,95.30
2023-02-03T05:39:10.119Z,95.30
2023-02-03T05:49:31.184Z,95.40
2023-02-03T05:59:52.209Z,95.40
2023-02-03T06:10:13.855Z,95.40
2023-02-03T06:20:35.637Z,95.40
2023-02-03T06:30:57.280Z,95.50
2023-02-03T06:41:19.094Z,95.50
2023-02-03T06:51:40.425Z,95.40
2023-02-03T10:50:33.754Z,95.90
2023-02-03T11:01:05.677Z,95.70
2023-02-03T11:11:34.062Z,94.80
2023-02-03T11:22:00.105Z,94.50
2023-02-03T11:32:35.623Z,94.50
2023-02-03T11:42:56.830Z,93.90
2023-02-03T11:53:57.293Z,91.90
2023-02-03T12:04:45.508Z,93.30
2023-02-03T12:15:31.783Z,93.60
2023-02-03T12:26:13.955Z,91.20
2023-02-03T12:36:58.600Z,89.80
2023-02-03T12:47:44.548Z,88.30
2023-02-03T12:58:22.079Z,89.20
2023-02-03T13:09:13.504Z,89.10
2023-02-03T13:20:00.855Z,89.20
2023-02-03T13:30:49.018Z,88.50
2023-02-03T13:41:37.078Z,89.10
2023-02-03T13:51:58.467Z,88.50
2023-02-03T14:02:20.392Z,88.20
2023-02-03T14:12:50.825Z,88.90
2023-02-03T14:23:34.393Z,88.30
2023-02-03T14:34:06.814Z,88.90
2023-02-03T14:44:50.899Z,89.10
2023-02-03T14:55:36.920Z,88.60
2023-02-03T15:06:05.246Z,88.50
2023-02-03T15:16:27.153Z,89.40
2023-02-03T15:26:52.002Z,89.20
2023-02-03T15:37:31.629Z,89.90
2023-02-03T15:48:04.657Z,89.40
2023-02-03T15:58:37.092Z,91.00
2023-02-03T16:08:59.754Z,91.00
2023-02-03T16:19:23.478Z,91.10
2023-02-03T16:30:02.817Z,89.60
2023-02-03T16:40:42.603Z,88.60
2023-02-03T16:51:11.340Z,89.10
2023-02-03T17:01:50.770Z,89.00
2023-02-03T17:12:15.922Z,89.40
2023-02-03T17:22:37.494Z,88.60
2023-02-03T17:32:59.522Z,87.50
2023-02-03T17:54:04.913Z,87.40
2023-02-03T18:04:26.187Z,88.00
2023-02-03T18:14:48.916Z,86.80
2023-02-03T18:25:12.689Z,86.80
2023-02-03T18:35:34.339Z,85.30
2023-02-03T18:45:55.505Z,85.40
2023-02-03T18:56:25.257Z,86.00
2023-02-03T19:06:47.685Z,85.90
2023-02-03T19:17:10.413Z,86.00
2023-02-03T19:27:32.257Z,85.80
2023-02-03T19:37:53.867Z,85.90
2023-02-03T19:48:15.400Z,86.40
2023-02-03T19:58:36.800Z,86.20
2023-02-03T20:09:01.124Z,86.00
2023-02-03T20:19:22.503Z,85.90
2023-02-03T20:29:44.703Z,85.40
2023-02-03T20:40:17.224Z,85.30
2023-02-03T20:50:42.525Z,85.30
2023-02-03T21:01:18.673Z,85.40
2023-02-03T21:11:40.329Z,84.20
2023-02-03T21:22:17.173Z,84.20
2023-02-03T21:32:40.910Z,85.70
2023-02-03T21:43:03.446Z,85.90
2023-02-03T21:53:35.589Z,85.20
2023-02-03T22:03:59.779Z,84.60
2023-02-03T22:14:21.335Z,84.50
2023-02-03T22:24:42.515Z,84.40
2023-02-03T22:35:04.432Z,84.40
2023-02-03T22:45:25.715Z,85.60
2023-02-03T22:55:46.723Z,85.50
2023-02-03T23:06:07.971Z,85.60
2023-02-03T23:16:29.036Z,86.40
2023-02-03T23:26:50.787Z,87.40
2023-02-03T23:37:12.638Z,88.30
2023-02-03T23:47:34.937Z,88.80
2023-02-03T23:57:55.813Z,89.50
